»·PEaware :: N902SQ KSLC-KVGT

N902SQ :: KSLC-KVGT

FLIGHT INFORMATION

Flight Status: Arrived
Operator: Privately registered:
United States
More flights under this callsign
Pilot: Gabor H. (24209)
Aircraft: SOCATA TBM-900
(TBM9)
More flights by this aircraft type
Origin: KSLC Salt Lake City Intl
United States
Destination: KVGT North Las Vegas
United States
More flights between these airports :: More routes between these airports
Route: FFU9 FFU J9 BERYL V21 MMM
File this flight plan on PilotEdge
Remarks:
Altitude:
(Current/Filed)
28,000ft
Speed:
(Current/Filed)
310kts
Departed: 06-Nov-23 08:13 AM
Arrived: 06-Nov-23 09:36 AM
Distance/Time
Traveled:
314nm/1:23
Distance/Time
To Go:
Arrived

Flight Plot

Page will automatically refresh every two minutes.

Flight plan parsing failed; only flown route is shown


Map Options




Map Legend


Flown Route
Filed Route
Departure Airport
Arrival Airport
Navaid (VOR, NDB)
Fix

Horizontal Profiles

Position Reports

Time Latitude Longitude Heading Altitude Ground
Speed
06-Nov-23 07:54 40.777241 -111.958870 180 4230ft 0kts
06-Nov-23 07:55 40.777241 -111.958870 180 4230ft 0kts
06-Nov-23 07:56 40.777241 -111.958870 180 4230ft 0kts
06-Nov-23 07:57 40.777241 -111.958870 180 4230ft 0kts
06-Nov-23 07:58 40.777241 -111.958870 180 4230ft 0kts
06-Nov-23 07:59 40.777241 -111.958870 180 4230ft 0kts
06-Nov-23 08:00 40.777241 -111.958870 180 4230ft 0kts
06-Nov-23 08:01 40.777241 -111.958870 180 4230ft 0kts
06-Nov-23 08:02 40.777241 -111.958870 180 4230ft 0kts
06-Nov-23 08:03 40.777241 -111.958870 180 4230ft 0kts
06-Nov-23 08:04 40.777241 -111.958870 180 4230ft 0kts
06-Nov-23 08:05 40.777241 -111.958870 180 4230ft 0kts
06-Nov-23 08:06 40.777238 -111.958870 180 4230ft 0kts
06-Nov-23 08:07 40.779387 -111.960035 359 4230ft 19kts
06-Nov-23 08:08 40.785675 -111.960048 359 4230ft 25kts
06-Nov-23 08:09 40.792620 -111.960029 357 4230ft 23kts
06-Nov-23 08:10 40.798629 -111.960080 350 4230ft 13kts
06-Nov-23 08:11 40.798874 -111.960852 268 4230ft 9kts
06-Nov-23 08:12 40.784424 -111.962008 179 4367ft 127kts
06-Nov-23 08:13 40.744840 -111.956345 171 6518ft 145kts
06-Nov-23 08:14 40.705632 -111.948132 175 8874ft 142kts
06-Nov-23 08:15 40.668333 -111.940370 177 11319ft 140kts
06-Nov-23 08:16 40.629427 -111.932219 182 13493ft 145kts
06-Nov-23 08:17 40.589521 -111.923873 185 15711ft 147kts
06-Nov-23 08:18 40.548998 -111.915442 188 17579ft 150kts
06-Nov-23 08:19 40.507642 -111.906874 190 19281ft 153kts
06-Nov-23 08:20 40.465613 -111.899695 206 20804ft 142kts
06-Nov-23 08:21 40.427043 -111.907539 209 22273ft 140kts
06-Nov-23 08:22 40.387893 -111.916006 209 23777ft 150kts
06-Nov-23 08:23 40.347569 -111.924753 210 26148ft 151kts
06-Nov-23 08:24 40.305425 -111.934044 210 28015ft 170kts
06-Nov-23 08:25 40.250355 -111.955413 216 28018ft 229kts
06-Nov-23 08:26 40.188780 -111.991305 215 27996ft 253kts
06-Nov-23 08:27 40.123382 -112.029689 215 27990ft 261kts
06-Nov-23 08:28 40.056717 -112.068790 215 27988ft 264kts
06-Nov-23 08:29 39.989704 -112.108018 215 27984ft 265kts
06-Nov-23 08:30 39.922173 -112.146741 214 27981ft 265kts
06-Nov-23 08:31 39.854731 -112.185041 214 27990ft 265kts
06-Nov-23 08:33 39.787136 -112.223347 214 27994ft 265kts
06-Nov-23 08:34 39.719490 -112.261599 214 27996ft 265kts
06-Nov-23 08:35 39.651889 -112.299742 214 27995ft 265kts
06-Nov-23 08:36 39.584291 -112.337801 214 27995ft 265kts
06-Nov-23 08:37 39.516835 -112.375685 214 27993ft 265kts
06-Nov-23 08:38 39.449151 -112.413646 214 27993ft 265kts
06-Nov-23 08:39 39.381359 -112.451571 214 27992ft 265kts
06-Nov-23 08:40 39.313838 -112.489265 214 27995ft 265kts
06-Nov-23 08:41 39.245969 -112.527081 214 27995ft 265kts
06-Nov-23 08:42 39.178339 -112.564666 214 27994ft 266kts
06-Nov-23 08:43 39.110529 -112.602285 215 28016ft 266kts
06-Nov-23 08:44 39.042586 -112.639896 215 28039ft 266kts
06-Nov-23 08:45 38.974709 -112.677393 214 28059ft 268kts
06-Nov-23 08:46 38.906109 -112.715202 214 28057ft 269kts
06-Nov-23 08:47 38.836943 -112.753247 214 28060ft 271kts
06-Nov-23 08:48 38.767704 -112.791253 214 28059ft 271kts
06-Nov-23 08:49 38.698386 -112.829220 214 28058ft 271kts
06-Nov-23 08:50 38.629183 -112.867043 214 28057ft 271kts
06-Nov-23 08:51 38.560069 -112.904741 214 28056ft 270kts
06-Nov-23 08:52 38.490991 -112.942341 214 28053ft 270kts
06-Nov-23 08:53 38.421705 -112.979975 214 28049ft 270kts
06-Nov-23 08:54 38.353772 -113.018815 222 28036ft 261kts
06-Nov-23 08:55 38.292576 -113.068444 222 28044ft 261kts
06-Nov-23 08:56 38.231453 -113.118108 222 28042ft 260kts
06-Nov-23 08:57 38.170705 -113.167383 222 28042ft 260kts
06-Nov-23 08:58 38.109848 -113.216644 222 28040ft 260kts
06-Nov-23 08:59 38.048833 -113.265935 222 28040ft 259kts
06-Nov-23 09:00 37.988164 -113.314855 223 28034ft 260kts
06-Nov-23 09:00 37.937213 -113.355853 223 28039ft 261kts
06-Nov-23 09:01 37.875800 -113.405200 222 28041ft 262kts
06-Nov-23 09:03 37.804086 -113.462663 222 28039ft 262kts
06-Nov-23 09:04 37.742646 -113.511791 223 28038ft 261kts
06-Nov-23 09:04 37.691582 -113.552563 223 28037ft 261kts
06-Nov-23 09:05 37.630266 -113.601434 222 28036ft 261kts
06-Nov-23 09:07 37.558611 -113.658382 222 28059ft 261kts
06-Nov-23 09:08 37.496802 -113.707447 222 28054ft 264kts
06-Nov-23 09:08 37.444843 -113.748598 222 28050ft 265kts
06-Nov-23 09:09 37.382370 -113.797988 222 28048ft 266kts
06-Nov-23 09:10 37.318264 -113.848598 221 27156ft 282kts
06-Nov-23 09:11 37.251159 -113.901384 220 25864ft 288kts
06-Nov-23 09:13 37.172021 -113.963527 219 24363ft 284kts
06-Nov-23 09:13 37.116821 -114.006782 219 23323ft 280kts
06-Nov-23 09:14 37.051104 -114.058188 219 22087ft 276kts
06-Nov-23 09:15 36.986503 -114.108617 218 20877ft 273kts
06-Nov-23 09:16 36.922275 -114.158650 218 19677ft 273kts
06-Nov-23 09:17 36.857812 -114.208758 218 18481ft 273kts
06-Nov-23 09:18 36.793522 -114.258659 218 17279ft 271kts
06-Nov-23 09:19 36.741949 -114.322662 236 16086ft 263kts
06-Nov-23 09:20 36.699382 -114.393545 235 15267ft 256kts
06-Nov-23 09:21 36.656098 -114.465261 234 13977ft 261kts
06-Nov-23 09:22 36.612593 -114.537174 234 12650ft 259kts
06-Nov-23 09:23 36.569693 -114.606935 231 11892ft 247kts
06-Nov-23 09:24 36.525216 -114.675634 231 10386ft 253kts
06-Nov-23 09:25 36.484360 -114.742190 231 8873ft 235kts
06-Nov-23 09:26 36.446785 -114.805710 231 7993ft 218kts
06-Nov-23 09:27 36.411116 -114.866172 231 7999ft 215kts
06-Nov-23 09:28 36.376116 -114.926083 231 7059ft 212kts
06-Nov-23 09:29 36.341790 -114.984815 231 6501ft 207kts
06-Nov-23 09:30 36.314394 -115.047907 241 6502ft 209kts
06-Nov-23 09:31 36.289519 -115.113679 241 6314ft 210kts
06-Nov-23 09:32 36.265684 -115.176728 241 5128ft 190kts
06-Nov-23 09:33 36.241073 -115.218637 193 3406ft 117kts
06-Nov-23 09:34 36.217577 -115.206210 146 2306ft 80kts
06-Nov-23 09:35 36.210451 -115.198308 237 2198ft 0kts
06-Nov-23 09:36 36.209484 -115.198127 209 2198ft 6kts
06-Nov-23 09:37 36.209380 -115.198564 315 2198ft 0kts
06-Nov-23 09:38 36.209380 -115.198565 315 2198ft 0kts

Navigation Log

Ident Type
Flight plan parsing failed, navigation log unavailable